Time;durP1;ratioP1;P1;durP2;ratioP2;P2;SDS_P1;SDS_P2;PMS_P1;PMS_P2;Temp;Humidity;BMP_temperature;BMP_pressure;BME280_temperature;BME280_humidity;BME280_pressure;Samples;Min_cycle;Max_cycle;Signal;HPM_P1;HPM_P2
2022/05/20 00:02:16;;;;;;;2.40;1.50;;;25.30;38.00;;;;;;5052611;28;20447;-36
2022/05/20 00:04:42;;;;;;;4.27;2.50;;;25.30;38.40;;;;;;5052633;28;20404;-36
2022/05/20 00:07:09;;;;;;;2.53;1.87;;;25.20;38.20;;;;;;5052210;28;20431;-37
2022/05/20 00:09:36;;;;;;;3.40;2.43;;;25.20;39.00;;;;;;5052495;28;20251;-37
2022/05/20 00:12:04;;;;;;;3.10;2.30;;;25.10;38.70;;;;;;5052815;28;20412;-37
2022/05/20 00:14:31;;;;;;;2.60;1.90;;;25.10;38.80;;;;;;5052593;28;20416;-36
2022/05/20 00:16:56;;;;;;;2.80;2.10;;;25.10;39.00;;;;;;5052241;28;20419;-37
2022/05/20 00:19:22;;;;;;;2.00;1.63;;;25.00;38.90;;;;;;5052350;28;20490;-37
2022/05/20 00:21:48;;;;;;;3.03;2.07;;;25.00;39.70;;;;;;5052246;28;20210;-37
2022/05/20 00:24:13;;;;;;;3.50;1.73;;;24.90;39.00;;;;;;5052270;28;20640;-36
2022/05/20 00:26:39;;;;;;;2.67;2.07;;;24.90;39.00;;;;;;5052833;28;20149;-36
2022/05/20 00:29:05;;;;;;;3.60;2.27;;;24.90;39.10;;;;;;5052167;28;20554;-37
2022/05/20 00:31:30;;;;;;;5.20;2.27;;;24.80;39.10;;;;;;5052194;28;20199;-37
2022/05/20 00:33:56;;;;;;;2.53;1.50;;;24.80;39.30;;;;;;5052164;28;20177;-37
2022/05/20 00:36:22;;;;;;;7.30;2.67;;;24.80;39.40;;;;;;5052077;28;20173;-37
2022/05/20 00:38:49;;;;;;;2.90;2.00;;;24.70;40.20;;;;;;5050990;28;20237;-36
2022/05/20 00:41:15;;;;;;;2.17;1.77;;;24.80;39.70;;;;;;5052236;28;20205;-37
2022/05/20 00:43:47;;;;;;;3.50;1.93;;;24.70;39.50;;;;;;5052240;28;20450;-37
2022/05/20 00:46:20;;;;;;;5.60;2.00;;;24.70;39.50;;;;;;5052157;28;20423;-37
2022/05/20 00:48:49;;;;;;;2.97;2.00;;;24.70;39.70;;;;;;5052276;28;20415;-37
2022/05/20 00:51:29;;;;;;;3.70;2.33;;;24.60;39.80;;;;;;5051870;28;20771;-37
2022/05/20 00:54:01;;;;;;;3.07;1.80;;;24.60;39.70;;;;;;5052157;28;20403;-36
2022/05/20 00:56:33;;;;;;;2.83;1.60;;;24.50;39.70;;;;;;5052022;28;20942;-37
2022/05/20 00:58:59;;;;;;;5.40;2.37;;;24.50;39.70;;;;;;5051773;28;20419;-36
2022/05/20 01:01:27;;;;;;;2.67;1.90;;;24.50;40.20;;;;;;5051733;28;20505;-36
2022/05/20 01:03:56;;;;;;;3.40;1.57;;;24.40;40.10;;;;;;5052130;28;20518;-36
2022/05/20 01:06:22;;;;;;;2.87;2.10;;;24.40;40.20;;;;;;5051797;28;20410;-36
2022/05/20 01:08:47;;;;;;;2.77;2.13;;;24.40;40.10;;;;;;5051669;28;20428;-36
2022/05/20 01:11:13;;;;;;;5.87;2.10;;;24.40;40.20;;;;;;5051799;28;20426;-36
2022/05/20 01:13:40;;;;;;;7.30;2.20;;;24.30;40.10;;;;;;5051807;28;20197;-37
2022/05/20 01:16:11;;;;;;;3.40;2.20;;;24.30;40.30;;;;;;5051741;28;20235;-36
2022/05/20 01:18:40;;;;;;;3.07;2.10;;;24.30;40.10;;;;;;5051714;28;20530;-36
2022/05/20 01:21:06;;;;;;;3.03;1.90;;;24.30;40.50;;;;;;5051583;28;20963;-37
2022/05/20 01:23:34;;;;;;;3.13;1.80;;;24.20;40.80;;;;;;5051657;28;20461;-36
2022/05/20 01:26:00;;;;;;;3.40;1.67;;;24.10;40.60;;;;;;5051701;28;20408;-37
2022/05/20 01:28:28;;;;;;;2.23;1.80;;;24.10;40.70;;;;;;5051759;28;20510;-36
2022/05/20 01:31:01;;;;;;;2.90;2.13;;;24.10;41.00;;;;;;5051868;28;20173;-36
2022/05/20 01:33:31;;;;;;;4.70;2.07;;;24.00;41.00;;;;;;5051794;28;20404;-36
2022/05/20 01:35:58;;;;;;;6.80;2.27;;;24.00;41.10;;;;;;5051670;28;20410;-36
2022/05/20 01:38:24;;;;;;;2.50;2.10;;;24.00;42.10;;;;;;5051221;28;20443;-36
2022/05/20 01:41:02;;;;;;;2.60;1.40;;;23.90;41.50;;;;;;5051492;28;20457;-36
2022/05/20 01:43:59;;;;;;;2.50;1.63;;;23.80;41.50;;;;;;5051736;28;20231;-36
2022/05/20 01:46:36;;;;;;;2.50;1.90;;;23.80;41.60;;;;;;5051540;28;20400;-36
2022/05/20 01:49:17;;;;;;;3.17;1.70;;;23.70;42.30;;;;;;5051272;28;20772;-36
2022/05/20 01:51:52;;;;;;;2.67;1.87;;;23.60;42.10;;;;;;5055090;28;20411;-36
2022/05/20 01:54:42;;;;;;;3.23;2.00;;;23.60;42.30;;;;;;5055158;28;20406;-36
2022/05/20 01:57:17;;;;;;;3.70;2.43;;;23.60;42.30;;;;;;5016589;28;20436;-36
2022/05/20 01:59:49;;;;;;;2.50;1.97;;;23.50;42.80;;;;;;5055043;28;20442;-37
2022/05/20 02:02:29;;;;;;;2.47;2.00;;;23.50;42.30;;;;;;5055216;28;20864;-36
2022/05/20 02:05:13;;;;;;;2.90;1.97;;;23.50;42.50;;;;;;5055052;28;20502;-37
2022/05/20 02:07:43;;;;;;;4.83;2.30;;;23.50;42.60;;;;;;5054672;28;20466;-37
2022/05/20 02:10:12;;;;;;;2.43;1.50;;;23.40;42.50;;;;;;5054763;28;20424;-37
2022/05/20 02:12:46;;;;;;;2.53;1.80;;;23.40;42.80;;;;;;5053419;28;20461;-36
2022/05/20 02:15:46;;;;;;;2.80;1.73;;;23.40;42.60;;;;;;5054927;28;20407;-36
2022/05/20 02:18:21;;;;;;;3.80;1.80;;;23.30;43.40;;;;;;5044073;28;20485;-36
2022/05/20 02:20:51;;;;;;;2.57;1.63;;;23.20;43.00;;;;;;5054541;28;20926;-36
2022/05/20 02:23:31;;;;;;;5.97;2.53;;;23.10;43.30;;;;;;5054964;28;20811;-36
2022/05/20 02:26:05;;;;;;;3.10;2.33;;;23.10;43.00;;;;;;5054540;28;20391;-36
2022/05/20 02:28:38;;;;;;;2.43;1.90;;;23.10;43.10;;;;;;5054308;28;20419;-36
2022/05/20 02:31:09;;;;;;;3.67;2.03;;;23.10;43.00;;;;;;5054331;28;20400;-36
2022/05/20 02:33:35;;;;;;;3.30;2.07;;;23.10;43.50;;;;;;5054675;28;20392;-36
2022/05/20 02:36:16;;;;;;;2.10;1.60;;;23.00;43.00;;;;;;5054404;28;20399;-36
2022/05/20 02:38:42;;;;;;;3.17;2.30;;;23.00;43.30;;;;;;5053836;28;20700;-37
2022/05/20 02:41:08;;;;;;;6.83;2.47;;;23.00;43.10;;;;;;5054188;28;20458;-36
2022/05/20 02:43:34;;;;;;;3.77;2.00;;;22.90;43.40;;;;;;5054106;28;20588;-36
2022/05/20 02:46:01;;;;;;;4.43;2.37;;;22.90;43.90;;;;;;5054426;28;20415;-36
2022/05/20 02:48:26;;;;;;;2.53;1.93;;;22.80;43.80;;;;;;5054001;28;20432;-36
2022/05/20 02:50:53;;;;;;;3.00;1.70;;;22.80;44.90;;;;;;5054093;28;20523;-36
2022/05/20 02:53:19;;;;;;;2.33;1.60;;;22.70;44.10;;;;;;5054101;28;20404;-36
2022/05/20 02:55:45;;;;;;;3.73;2.30;;;22.60;43.70;;;;;;5054025;28;20434;-36
2022/05/20 03:04:09;;;;;;;2.90;1.63;;;22.60;43.80;;;;;;5053616;28;20428;-36
2022/05/20 03:06:26;;;;;;;4.70;2.10;;;22.50;44.00;;;;;;5054052;28;20407;-36
2022/05/20 03:08:52;;;;;;;4.40;2.60;;;22.50;44.20;;;;;;5053434;28;20432;-36
2022/05/20 03:11:18;;;;;;;3.80;2.53;;;22.40;44.70;;;;;;5053638;28;20184;-36
2022/05/20 03:13:43;;;;;;;3.20;2.40;;;22.40;44.50;;;;;;5053626;28;20548;-36
2022/05/20 03:16:09;;;;;;;3.07;2.30;;;22.30;44.90;;;;;;5053591;28;20218;-36
2022/05/20 03:18:35;;;;;;;2.80;1.83;;;22.30;45.10;;;;;;5053327;28;20232;-36
2022/05/20 03:21:01;;;;;;;3.57;2.77;;;22.30;44.80;;;;;;5053344;28;20518;-36
2022/05/20 03:23:27;;;;;;;3.50;2.20;;;22.30;45.10;;;;;;5053442;28;20740;-36
2022/05/20 03:25:53;;;;;;;4.47;2.67;;;22.20;45.10;;;;;;5053642;28;20514;-36
2022/05/20 03:28:19;;;;;;;2.30;1.60;;;22.20;45.10;;;;;;5053228;28;20196;-36
2022/05/20 03:30:45;;;;;;;3.73;2.20;;;22.20;45.10;;;;;;5053295;28;20404;-36
2022/05/20 03:33:10;;;;;;;3.10;2.20;;;22.20;45.60;;;;;;5053296;28;20188;-36
2022/05/20 03:35:36;;;;;;;3.10;2.00;;;22.10;45.40;;;;;;5053057;28;20412;-36
2022/05/20 03:38:01;;;;;;;5.83;2.87;;;22.10;45.10;;;;;;5052723;28;20205;-37
2022/05/20 03:40:27;;;;;;;4.60;2.13;;;22.10;45.70;;;;;;5053079;28;20201;-36
2022/05/20 03:42:53;;;;;;;4.17;2.17;;;22.10;45.00;;;;;;5052986;28;20260;-36
2022/05/20 03:45:19;;;;;;;4.50;2.80;;;22.10;45.20;;;;;;5052980;28;20176;-37
2022/05/20 03:47:44;;;;;;;3.50;2.60;;;22.20;45.40;;;;;;5052605;28;20193;-36
2022/05/20 03:50:10;;;;;;;4.10;2.60;;;22.20;45.40;;;;;;5052829;28;20264;-36
2022/05/20 03:52:36;;;;;;;6.57;3.20;;;22.20;45.20;;;;;;5052860;28;20252;-36
2022/05/20 03:55:02;;;;;;;3.10;1.97;;;22.20;45.80;;;;;;5052848;28;20503;-36
2022/05/20 03:57:28;;;;;;;2.90;2.00;;;22.20;45.40;;;;;;5052454;28;20300;-36
2022/05/20 03:59:54;;;;;;;2.67;2.40;;;22.20;45.40;;;;;;5052839;28;20445;-36
2022/05/20 04:02:20;;;;;;;4.73;3.17;;;22.30;45.40;;;;;;5051298;28;20474;-36
2022/05/20 04:04:50;;;;;;;3.17;2.53;;;22.30;45.20;;;;;;5052528;28;20533;-36
2022/05/20 04:07:18;;;;;;;3.60;2.57;;;22.40;45.10;;;;;;5052540;28;20216;-37
2022/05/20 04:09:45;;;;;;;5.40;2.73;;;22.40;45.30;;;;;;5052568;28;20928;-36
2022/05/20 04:12:26;;;;;;;2.70;1.90;;;22.50;45.40;;;;;;5052593;28;20470;-36
2022/05/20 04:14:53;;;;;;;3.80;2.47;;;22.50;45.60;;;;;;5052542;28;20412;-36
2022/05/20 04:17:19;;;;;;;3.50;2.75;;;22.50;45.80;;;;;;5052057;28;20427;-36
2022/05/20 04:19:44;;;;;;;4.37;2.73;;;22.60;45.30;;;;;;5052602;28;20181;-36
2022/05/20 04:22:12;;;;;;;2.50;1.80;;;22.60;45.50;;;;;;5052291;28;20486;-36
2022/05/20 04:24:38;;;;;;;3.77;1.77;;;22.70;45.20;;;;;;5052443;28;20177;-36
2022/05/20 04:27:04;;;;;;;3.43;2.67;;;22.80;45.70;;;;;;5052069;28;20428;-36
2022/05/20 04:29:30;;;;;;;2.20;1.73;;;22.90;45.40;;;;;;5052251;28;20173;-36
2022/05/20 04:31:56;;;;;;;3.53;2.80;;;22.90;45.40;;;;;;5051984;28;20414;-36
2022/05/20 04:34:22;;;;;;;3.00;1.83;;;23.00;45.00;;;;;;5052137;28;20660;-37
2022/05/20 04:36:48;;;;;;;3.37;2.27;;;23.10;44.80;;;;;;5052014;28;20404;-37
2022/05/20 04:39:15;;;;;;;3.93;2.47;;;23.20;44.60;;;;;;5052039;28;20506;-37
2022/05/20 04:47:15;;;;;;;3.43;1.63;;;23.40;43.90;;;;;;5052029;28;20522;-37
2022/05/20 04:49:42;;;;;;;2.87;1.90;;;23.50;44.10;;;;;;5052003;28;20396;-36
2022/05/20 04:52:08;;;;;;;2.43;1.60;;;23.50;44.00;;;;;;5052035;28;20415;-36
2022/05/20 04:54:52;;;;;;;2.97;1.50;;;23.60;44.00;;;;;;5052002;28;20432;-36
2022/05/20 04:57:31;;;;;;;2.20;1.70;;;23.70;43.70;;;;;;5051662;28;20427;-36
2022/05/20 05:00:01;;;;;;;2.47;1.97;;;23.70;43.70;;;;;;5052064;28;20399;-37
2022/05/20 05:02:27;;;;;;;5.63;1.77;;;23.80;43.50;;;;;;5051806;28;20461;-36
2022/05/20 05:04:53;;;;;;;3.27;1.40;;;23.90;43.50;;;;;;5051901;28;20458;-36
2022/05/20 05:07:19;;;;;;;2.60;1.80;;;23.90;43.40;;;;;;5051376;28;20507;-37
2022/05/20 05:09:45;;;;;;;3.73;2.00;;;24.00;43.50;;;;;;5052036;28;20419;-37
2022/05/20 05:12:12;;;;;;;3.57;1.90;;;24.00;43.20;;;;;;5051826;28;20403;-37
2022/05/20 05:14:40;;;;;;;4.57;2.10;;;24.10;43.30;;;;;;5051740;28;20775;-37
2022/05/20 05:17:10;;;;;;;2.40;1.80;;;24.10;43.60;;;;;;5051459;28;20477;-36
2022/05/20 05:19:38;;;;;;;3.13;2.27;;;24.10;43.50;;;;;;5051963;28;20407;-37
2022/05/20 05:22:06;;;;;;;2.30;1.60;;;24.10;43.40;;;;;;5051545;28;20455;-36
2022/05/20 05:24:32;;;;;;;2.50;2.23;;;24.20;43.30;;;;;;5052542;28;20400;-36
2022/05/20 05:26:58;;;;;;;5.20;3.20;;;24.20;43.50;;;;;;5055260;28;20756;-36
2022/05/20 05:29:23;;;;;;;4.00;2.63;;;24.20;43.20;;;;;;5055703;28;20461;-36
2022/05/20 05:31:49;;;;;;;4.30;2.53;;;24.30;43.40;;;;;;5055518;28;20510;-36
2022/05/20 05:34:16;;;;;;;5.60;3.37;;;24.30;43.40;;;;;;5055511;28;20181;-36
2022/05/20 05:36:41;;;;;;;4.37;3.33;;;24.30;43.30;;;;;;5055337;28;20534;-36
2022/05/20 05:39:07;;;;;;;5.20;3.30;;;24.40;43.10;;;;;;5054956;28;20447;-36
2022/05/20 05:41:33;;;;;;;4.80;3.07;;;24.40;43.00;;;;;;5055319;28;20193;-36
2022/05/20 05:44:02;;;;;;;3.73;2.47;;;24.40;42.90;;;;;;5055356;28;20412;-36
2022/05/20 05:46:28;;;;;;;6.27;3.20;;;24.50;43.40;;;;;;5055287;28;20187;-36
2022/05/20 05:48:54;;;;;;;3.63;3.00;;;24.50;43.40;;;;;;5054899;28;20784;-36
2022/05/20 05:51:19;;;;;;;4.00;2.80;;;24.50;43.10;;;;;;5055125;28;20407;-36
2022/05/20 05:53:45;;;;;;;5.33;2.07;;;24.50;42.90;;;;;;5055336;28;20653;-36
2022/05/20 05:56:11;;;;;;;5.40;3.00;;;24.60;42.60;;;;;;5055296;28;20232;-36
2022/05/20 05:58:39;;;;;;;4.07;2.30;;;24.70;42.90;;;;;;5054751;28;20189;-37
2022/05/20 06:01:06;;;;;;;3.80;2.57;;;24.70;42.80;;;;;;5054821;28;20660;-36
2022/05/20 06:03:32;;;;;;;3.43;2.17;;;24.90;42.80;;;;;;5054790;28;20821;-37
2022/05/20 06:05:58;;;;;;;4.10;2.93;;;25.00;42.60;;;;;;5055087;28;20562;-37
2022/05/20 06:08:24;;;;;;;4.10;2.57;;;25.10;42.50;;;;;;5054579;28;20947;-37
2022/05/20 06:10:50;;;;;;;4.10;2.87;;;25.20;42.50;;;;;;5054941;28;20533;-36
2022/05/20 06:13:24;;;;;;;4.37;2.60;;;25.30;42.40;;;;;;5054727;28;20422;-37
2022/05/20 06:15:50;;;;;;;4.80;2.50;;;25.30;42.10;;;;;;5054672;28;20408;-36
2022/05/20 06:18:15;;;;;;;2.97;1.70;;;25.30;41.90;;;;;;5054241;28;20427;-37
2022/05/20 06:20:41;;;;;;;3.60;2.60;;;25.30;41.80;;;;;;5054525;28;20447;-36
2022/05/20 06:23:07;;;;;;;4.60;2.83;;;25.40;42.00;;;;;;5054521;28;20270;-36
2022/05/20 06:25:33;;;;;;;5.87;4.20;;;25.40;42.10;;;;;;5054627;28;20170;-36
2022/05/20 06:28:06;;;;;;;3.67;2.87;;;25.50;41.90;;;;;;5054240;28;20201;-37
2022/05/20 06:30:32;;;;;;;3.67;2.87;;;25.50;41.60;;;;;;5054396;28;20173;-37
2022/05/20 06:32:58;;;;;;;3.47;2.70;;;25.50;41.60;;;;;;5054602;28;20903;-36
2022/05/20 06:40:52;;;;;;;3.10;2.37;;;25.50;41.30;;;;;;5054554;28;20473;-37
2022/05/20 06:43:19;;;;;;;3.20;2.33;;;25.60;41.60;;;;;;5054037;28;20518;-36
2022/05/20 06:45:47;;;;;;;3.80;3.20;;;25.60;41.50;;;;;;5054262;28;20192;-36
2022/05/20 06:48:13;;;;;;;3.80;3.30;;;25.70;41.40;;;;;;5053860;28;20416;-36
2022/05/20 06:50:41;;;;;;;4.17;3.40;;;25.80;41.10;;;;;;5054023;28;20772;-36
2022/05/20 06:53:07;;;;;;;4.30;3.00;;;25.90;40.90;;;;;;5054057;28;20935;-36
2022/05/20 06:55:33;;;;;;;4.20;2.40;;;25.90;40.70;;;;;;5053933;28;20503;-36
2022/05/20 06:57:59;;;;;;;3.53;3.10;;;26.00;40.80;;;;;;5053870;28;20451;-36
2022/05/20 07:00:25;;;;;;;7.50;3.60;;;26.00;40.70;;;;;;5054035;28;20486;-36
2022/05/20 07:02:51;;;;;;;5.20;4.33;;;26.00;40.70;;;;;;5053792;28;20200;-36
2022/05/20 07:05:17;;;;;;;4.87;3.90;;;25.90;39.80;;;;;;5053759;28;20178;-36
2022/05/20 07:07:43;;;;;;;3.77;3.40;;;25.90;39.90;;;;;;5053560;28;20275;-36
2022/05/20 07:10:11;;;;;;;6.77;4.10;;;25.90;40.30;;;;;;5054123;28;20538;-36
2022/05/20 07:12:37;;;;;;;4.40;3.77;;;26.00;40.90;;;;;;5053866;28;20456;-36
2022/05/20 07:15:04;;;;;;;6.57;3.93;;;26.00;40.60;;;;;;5053722;28;20416;-36
2022/05/20 07:17:31;;;;;;;4.43;3.80;;;26.10;40.70;;;;;;5053382;28;20486;-36
2022/05/20 07:19:57;;;;;;;6.13;4.73;;;26.10;40.70;;;;;;5053702;28;20498;-36
2022/05/20 07:22:22;;;;;;;14.30;4.27;;;26.10;40.60;;;;;;5053332;28;20897;-36
2022/05/20 07:24:48;;;;;;;7.57;4.60;;;26.10;40.60;;;;;;5053358;28;20404;-36
2022/05/20 07:27:14;;;;;;;4.23;3.73;;;26.10;40.60;;;;;;5053106;28;20251;-37
2022/05/20 07:29:40;;;;;;;6.00;4.50;;;26.10;40.90;;;;;;5053261;28;20264;-37
2022/05/20 07:32:07;;;;;;;7.73;5.53;;;26.10;40.90;;;;;;5053242;28;20416;-36
2022/05/20 07:34:33;;;;;;;4.03;3.63;;;26.20;41.70;;;;;;5053200;28;20927;-36
2022/05/20 07:36:59;;;;;;;5.93;4.67;;;26.30;40.80;;;;;;5052790;28;20416;-37
2022/05/20 07:39:25;;;;;;;5.10;4.60;;;26.30;40.00;;;;;;5053119;28;20761;-36
2022/05/20 07:41:51;;;;;;;4.97;3.70;;;26.30;39.70;;;;;;5053259;28;20451;-36
2022/05/20 07:44:18;;;;;;;5.07;4.43;;;26.20;39.50;;;;;;5053152;28;20174;-36
2022/05/20 07:46:44;;;;;;;4.80;4.40;;;26.20;39.80;;;;;;5052944;28;20778;-36
2022/05/20 07:49:09;;;;;;;5.07;3.93;;;26.20;40.40;;;;;;5052520;28;20407;-37
2022/05/20 07:51:39;;;;;;;4.50;4.10;;;26.40;40.20;;;;;;5052866;28;20174;-36
2022/05/20 07:54:11;;;;;;;5.40;4.90;;;26.50;39.80;;;;;;5052770;28;20169;-36
2022/05/20 07:56:41;;;;;;;5.87;4.50;;;26.60;39.90;;;;;;5052734;28;20884;-37
2022/05/20 07:59:19;;;;;;;4.60;4.20;;;26.70;39.50;;;;;;5052446;28;20428;-36
2022/05/20 08:01:49;;;;;;;4.50;3.67;;;26.80;39.60;;;;;;5052704;28;20443;-36
2022/05/20 08:07:03;;;;;;;4.43;3.77;;;26.90;39.20;;;;;;5052648;28;20398;-36
2022/05/20 08:09:28;;;;;;;5.10;4.40;;;26.90;39.00;;;;;;5052566;28;20411;-36
2022/05/20 08:11:59;;;;;;;9.30;4.17;;;27.00;39.30;;;;;;5052492;28;20420;-37
2022/05/20 08:14:26;;;;;;;6.00;4.10;;;27.10;38.80;;;;;;5052596;28;20573;-36
2022/05/20 08:16:53;;;;;;;4.30;3.87;;;27.10;39.10;;;;;;5051938;28;20970;-37
2022/05/20 08:19:19;;;;;;;5.17;3.93;;;27.20;39.40;;;;;;5052843;28;20412;-36
2022/05/20 08:21:45;;;;;;;7.10;4.70;;;27.40;38.60;;;;;;5052553;28;20444;-36
2022/05/20 08:24:10;;;;;;;7.50;4.97;;;27.40;38.60;;;;;;5052458;28;20496;-37
2022/05/20 08:26:37;;;;;;;6.63;4.60;;;27.50;38.70;;;;;;5052333;28;20252;-36
2022/05/20 08:29:03;;;;;;;6.80;6.10;;;27.60;37.70;;;;;;5052039;28;20702;-36
2022/05/20 08:31:29;;;;;;;7.37;6.10;;;27.60;38.30;;;;;;5052134;28;20438;-37
2022/05/20 08:33:55;;;;;;;6.40;4.50;;;27.60;38.50;;;;;;5052127;28;20891;-37
2022/05/20 08:36:21;;;;;;;6.43;4.93;;;27.60;38.40;;;;;;5052166;28;20872;-36
2022/05/20 08:38:47;;;;;;;4.00;3.30;;;27.60;38.00;;;;;;5052284;28;20451;-37
2022/05/20 08:41:23;;;;;;;4.40;4.00;;;27.50;38.10;;;;;;5052103;28;20411;-36
2022/05/20 08:43:50;;;;;;;3.73;3.40;;;27.60;38.20;;;;;;5052083;28;20412;-36
2022/05/20 08:46:18;;;;;;;5.70;5.10;;;27.60;38.10;;;;;;5052018;28;20412;-36
2022/05/20 08:48:45;;;;;;;5.20;3.93;;;27.70;37.90;;;;;;5051798;28;20435;-36
2022/05/20 08:51:10;;;;;;;6.00;3.90;;;27.70;37.70;;;;;;5052104;28;20407;-37
2022/05/20 08:53:40;;;;;;;4.40;3.33;;;27.80;37.60;;;;;;5051959;28;20942;-37
2022/05/20 08:56:09;;;;;;;4.50;3.93;;;27.80;37.80;;;;;;5051967;28;20230;-37
2022/05/20 08:58:46;;;;;;;5.90;4.33;;;27.90;37.30;;;;;;5051312;28;20419;-37
2022/05/20 09:01:12;;;;;;;6.63;3.63;;;27.90;36.60;;;;;;5051691;28;20737;-36
2022/05/20 09:03:38;;;;;;;6.63;4.70;;;27.90;36.70;;;;;;5052078;28;20917;-36
2022/05/20 09:06:07;;;;;;;5.57;4.80;;;27.90;36.90;;;;;;5051973;28;20193;-36
2022/05/20 09:08:33;;;;;;;5.77;3.87;;;27.90;36.90;;;;;;5051544;28;20660;-37
2022/05/20 09:11:02;;;;;;;4.73;3.50;;;27.90;37.30;;;;;;5051654;28;20415;-37
2022/05/20 09:16:28;;;;;;;6.67;4.40;;;28.00;37.30;;;;;;5052006;28;20411;-37
2022/05/20 09:19:23;;;;;;;6.37;4.73;;;28.10;37.50;;;;;;5051650;28;20435;-36
2022/05/20 09:22:05;;;;;;;4.80;4.40;;;28.10;37.80;;;;;;5051844;28;20462;-36
2022/05/20 09:24:45;;;;;;;8.10;4.70;;;28.20;37.50;;;;;;5051721;28;20400;-36
2022/05/20 09:27:20;;;;;;;3.40;3.10;;;28.30;37.50;;;;;;5051316;28;20912;-37
2022/05/20 09:29:58;;;;;;;5.20;3.73;;;28.30;37.60;;;;;;5051570;28;20914;-37
2022/05/20 09:32:43;;;;;;;5.87;4.37;;;28.30;37.80;;;;;;5051650;28;20407;-37
2022/05/20 09:35:23;;;;;;;4.80;4.30;;;28.30;37.10;;;;;;5051726;28;20426;-37
2022/05/20 09:37:51;;;;;;;5.20;3.90;;;28.30;37.50;;;;;;5051164;28;21024;-36
2022/05/20 09:40:24;;;;;;;5.90;5.03;;;28.30;38.00;;;;;;5051340;28;20412;-37
2022/05/20 09:43:08;;;;;;;4.23;3.07;;;28.40;38.10;;;;;;5051616;28;20483;-37
2022/05/20 09:45:46;;;;;;;4.70;3.50;;;28.50;38.00;;;;;;5051608;28;20407;-37
2022/05/20 09:48:39;;;;;;;4.30;3.73;;;28.50;37.60;;;;;;5051131;28;20920;-34
2022/05/20 09:51:15;;;;;;;4.20;3.23;;;28.60;37.30;;;;;;5016174;28;20416;-37
2022/05/20 09:53:44;;;;;;;5.03;4.17;;;28.60;37.20;;;;;;5051475;28;20494;-37
2022/05/20 09:56:17;;;;;;;4.33;2.77;;;28.60;37.40;;;;;;5051335;28;20419;-37
2022/05/20 09:59:10;;;;;;;4.03;3.53;;;28.50;37.20;;;;;;5051182;28;20569;-37
2022/05/20 10:01:37;;;;;;;5.23;4.07;;;28.50;37.70;;;;;;5051461;28;20512;-36
2022/05/20 10:04:07;;;;;;;6.10;2.93;;;28.60;37.10;;;;;;5051443;28;20542;-37
2022/05/20 10:06:50;;;;;;;3.73;3.20;;;28.50;37.40;;;;;;5051377;28;20430;-37
2022/05/20 10:09:15;;;;;;;4.80;3.70;;;28.70;37.50;;;;;;5051132;28;20403;-37
2022/05/20 10:12:01;;;;;;;4.30;3.43;;;28.70;37.50;;;;;;5053571;28;20408;-37
2022/05/20 10:14:39;;;;;;;6.20;3.87;;;28.80;37.40;;;;;;5054718;28;20557;-37
2022/05/20 10:17:17;;;;;;;4.17;2.90;;;28.90;36.80;;;;;;5054519;28;20431;-37
2022/05/20 10:19:52;;;;;;;3.80;3.33;;;28.90;37.40;;;;;;5054668;28;20437;-37
2022/05/20 10:22:26;;;;;;;3.30;3.00;;;29.00;37.70;;;;;;5054845;28;20505;-37
2022/05/20 10:25:01;;;;;;;3.80;3.40;;;29.10;37.50;;;;;;5053309;28;20456;-37
2022/05/20 10:27:57;;;;;;;4.07;3.30;;;29.10;37.60;;;;;;5054312;28;20466;-37
2022/05/20 10:33:22;;;;;;;4.87;4.40;;;29.30;37.10;;;;;;5054680;28;20488;-37
2022/05/20 10:35:47;;;;;;;4.73;3.20;;;29.30;36.10;;;;;;5054488;28;20638;-37
2022/05/20 10:38:16;;;;;;;4.70;3.07;;;29.20;36.80;;;;;;5053977;28;20540;-37
2022/05/20 10:40:44;;;;;;;4.77;3.30;;;29.10;36.80;;;;;;5054148;28;20542;-36
2022/05/20 10:43:19;;;;;;;4.93;3.00;;;29.10;36.20;;;;;;5054308;28;20456;-36
2022/05/20 10:49:02;;;;;;;4.00;2.83;;;28.90;36.00;;;;;;5054116;28;20503;-36
2022/05/20 10:51:59;;;;;;;4.27;3.67;;;28.80;36.20;;;;;;5054303;28;20400;-37
2022/05/20 10:54:47;;;;;;;3.33;3.03;;;28.80;36.70;;;;;;5053980;28;20395;-36
2022/05/20 10:57:52;;;;;;;3.03;2.20;;;28.90;37.00;;;;;;5053710;28;20574;-36
2022/05/20 11:00:31;;;;;;;4.10;2.47;;;29.00;37.50;;;;;;5052224;28;20428;-36
2022/05/20 11:03:18;;;;;;;3.40;2.80;;;29.20;37.20;;;;;;5053936;28;20543;-36
2022/05/20 11:06:34;;;;;;;3.37;2.83;;;29.30;37.10;;;;;;5053771;28;20502;-36
2022/05/20 11:09:08;;;;;;;3.93;3.47;;;29.40;36.90;;;;;;5008998;28;20432;-36
2022/05/20 11:11:34;;;;;;;3.73;3.30;;;29.40;36.70;;;;;;5053761;28;20461;-36
2022/05/20 11:14:19;;;;;;;4.07;2.73;;;29.50;36.00;;;;;;5053488;28;20957;-37
2022/05/20 11:17:01;;;;;;;2.90;2.50;;;29.50;36.10;;;;;;5053725;28;20527;-36
2022/05/20 11:20:24;;;;;;;3.17;2.70;;;29.60;36.30;;;;;;5053651;28;20745;-37
2022/05/20 11:23:06;;;;;;;3.70;2.77;;;29.70;36.10;;;;;;4971432;28;20470;-37
2022/05/20 11:25:32;;;;;;;3.43;3.10;;;29.80;35.90;;;;;;4972376;28;20967;-37
2022/05/20 11:28:07;;;;;;;3.20;2.90;;;29.90;35.80;;;;;;4972003;28;20840;-37
2022/05/20 11:30:46;;;;;;;4.40;2.93;;;30.10;36.20;;;;;;4972323;28;20482;-37
2022/05/20 11:33:23;;;;;;;3.47;2.80;;;30.20;36.30;;;;;;4972222;28;20423;-37
2022/05/20 11:36:15;;;;;;;3.90;2.90;;;30.40;35.90;;;;;;4972343;28;20924;-37
2022/05/20 11:38:53;;;;;;;4.50;4.07;;;30.60;35.70;;;;;;4971805;28;20492;-37
2022/05/20 11:41:36;;;;;;;3.87;3.23;;;30.70;34.70;;;;;;4971984;28;20806;-37
2022/05/20 11:44:40;;;;;;;3.40;3.03;;;30.80;34.90;;;;;;4972029;28;20990;-37
2022/05/20 11:47:47;;;;;;;4.50;3.23;;;30.90;35.00;;;;;;4971644;28;20444;-37
2022/05/20 11:50:23;;;;;;;3.37;2.73;;;31.10;35.50;;;;;;4945541;28;20451;-37
2022/05/20 11:53:09;;;;;;;4.00;2.90;;;31.20;35.40;;;;;;4996010;28;20564;-37
2022/05/20 11:55:49;;;;;;;3.90;2.83;;;31.40;35.00;;;;;;5052882;28;20396;-37
2022/05/20 11:58:35;;;;;;;4.13;3.20;;;31.50;34.60;;;;;;5052784;28;20777;-37
2022/05/20 12:01:04;;;;;;;2.97;2.50;;;31.70;34.40;;;;;;5052750;28;20767;-37
2022/05/20 12:06:23;;;;;;;2.70;2.30;;;31.80;33.90;;;;;;5053226;28;20476;-37
2022/05/20 12:08:59;;;;;;;3.27;2.70;;;31.90;34.00;;;;;;5052410;28;20985;-37
2022/05/20 12:11:36;;;;;;;3.17;2.23;;;32.00;33.80;;;;;;5052709;28;20489;-37
2022/05/20 12:14:13;;;;;;;2.47;1.87;;;32.00;34.00;;;;;;5052638;28;20396;-37
2022/05/20 12:17:03;;;;;;;2.47;2.13;;;32.20;34.00;;;;;;5052689;28;20400;-37
2022/05/20 12:25:39;;;;;;;3.27;2.23;;;32.10;31.50;;;;;;4997948;28;20410;-37
2022/05/20 12:28:33;;;;;;;3.00;1.80;;;32.00;32.10;;;;;;5052099;28;20522;-37
2022/05/20 12:31:38;;;;;;;2.50;2.07;;;31.90;31.60;;;;;;5052259;28;20399;-37
2022/05/20 12:34:39;;;;;;;2.50;2.27;;;31.90;32.10;;;;;;5051334;28;20410;-37
2022/05/20 12:37:05;;;;;;;4.07;2.87;;;32.00;31.60;;;;;;5051768;28;20426;-37
2022/05/20 12:39:53;;;;;;;3.00;2.30;;;32.10;32.30;;;;;;5052094;28;20403;-37
2022/05/20 12:42:22;;;;;;;1.90;1.27;;;32.20;32.90;;;;;;5052226;28;20212;-37
2022/05/20 12:44:48;;;;;;;3.27;1.90;;;32.30;32.60;;;;;;5052102;28;20511;-37
2022/05/20 12:47:37;;;;;;;2.27;1.87;;;32.50;31.80;;;;;;5051799;28;20423;-37
2022/05/20 12:50:03;;;;;;;2.77;2.17;;;32.50;31.60;;;;;;5051991;28;20180;-37
2022/05/20 12:53:02;;;;;;;4.30;2.03;;;32.60;31.00;;;;;;5052111;28;20495;-37
2022/05/20 12:55:46;;;;;;;3.30;2.07;;;32.70;31.60;;;;;;5047264;28;20188;-37
2022/05/20 12:58:15;;;;;;;6.63;2.00;;;32.70;31.70;;;;;;5051600;28;20919;-37
2022/05/20 13:00:48;;;;;;;3.97;2.60;;;32.70;31.20;;;;;;5051955;28;20404;-37
2022/05/20 13:03:40;;;;;;;2.23;1.60;;;32.80;31.50;;;;;;5051965;28;20451;-37
2022/05/20 13:06:25;;;;;;;2.83;2.00;;;33.00;32.60;;;;;;5051876;28;20514;-37
2022/05/20 13:08:51;;;;;;;2.97;1.73;;;33.20;32.30;;;;;;5051834;28;20419;-37
2022/05/20 13:11:20;;;;;;;2.93;2.03;;;33.10;32.10;;;;;;5051982;28;20408;-35
2022/05/20 13:13:51;;;;;;;2.30;1.60;;;33.00;30.20;;;;;;5051775;28;20588;-35
2022/05/20 13:16:23;;;;;;;3.87;2.27;;;33.00;31.40;;;;;;5051730;28;20400;-35
2022/05/20 13:19:04;;;;;;;3.00;2.10;;;32.90;31.20;;;;;;5051373;28;20435;-35
2022/05/20 13:21:56;;;;;;;3.13;2.23;;;32.80;31.50;;;;;;5051605;28;20447;-35
2022/05/20 13:24:28;;;;;;;2.93;2.23;;;32.70;31.00;;;;;;5051632;28;20411;-35
2022/05/20 13:27:04;;;;;;;2.77;2.07;;;32.50;30.90;;;;;;5051384;28;20903;-35
2022/05/20 13:29:30;;;;;;;3.43;2.00;;;32.40;31.20;;;;;;5051656;28;20772;-35
2022/05/20 13:32:20;;;;;;;2.57;2.07;;;32.40;31.50;;;;;;5051818;28;20416;-35
2022/05/20 13:34:52;;;;;;;2.73;1.80;;;32.50;32.30;;;;;;5051573;28;20264;-35
2022/05/20 13:37:28;;;;;;;3.00;2.03;;;32.60;32.10;;;;;;5050991;28;20534;-35
2022/05/20 13:40:00;;;;;;;3.13;2.10;;;32.80;31.00;;;;;;5051377;28;20779;-35
2022/05/20 13:42:29;;;;;;;2.53;1.90;;;32.80;30.80;;;;;;5051497;28;20542;-35
2022/05/20 13:44:54;;;;;;;2.30;1.60;;;32.70;31.30;;;;;;5051830;28;20491;-35
2022/05/20 13:50:10;;;;;;;3.17;2.37;;;33.00;32.10;;;;;;5055245;28;20242;-37
2022/05/20 13:52:37;;;;;;;2.43;1.70;;;33.10;31.20;;;;;;5055214;28;20966;-37